createdAt,value
2023-02-28T00:01:35.984Z,5.00
2023-02-28T00:04:03.308Z,4.83
2023-02-28T00:06:30.613Z,3.27
2023-02-28T00:08:57.843Z,3.80
2023-02-28T00:11:25.077Z,4.97
2023-02-28T00:13:53.715Z,5.43
2023-02-28T00:16:22.005Z,4.90
2023-02-28T00:18:52.529Z,2.97
2023-02-28T00:21:20.853Z,6.20
2023-02-28T00:23:48.186Z,2.80
2023-02-28T00:26:15.871Z,4.50
2023-02-28T00:29:00.689Z,7.60
2023-02-28T00:31:46.371Z,3.23
2023-02-28T00:34:13.642Z,3.00
2023-02-28T00:36:41.021Z,4.97
2023-02-28T00:39:08.260Z,6.77
2023-02-28T00:41:35.517Z,6.17
2023-02-28T00:44:04.446Z,5.83
2023-02-28T00:49:22.816Z,4.83
2023-02-28T00:51:50.184Z,2.60
2023-02-28T00:54:17.478Z,4.97
2023-02-28T00:56:47.073Z,5.17
2023-02-28T00:59:15.756Z,3.13
2023-02-28T01:01:48.754Z,4.40
2023-02-28T01:04:41.795Z,5.57
2023-02-28T01:07:22.355Z,3.10
2023-02-28T01:09:50.087Z,4.07
2023-02-28T01:12:17.464Z,3.50
2023-02-28T01:14:46.171Z,2.77
2023-02-28T01:17:18.715Z,3.47
2023-02-28T01:19:46.005Z,3.57
2023-02-28T01:22:13.323Z,6.67
2023-02-28T01:24:42.968Z,2.83
2023-02-28T01:27:13.476Z,3.43
2023-02-28T01:29:40.824Z,2.83
2023-02-28T01:32:15.985Z,2.97
2023-02-28T01:34:43.410Z,7.70
2023-02-28T01:37:10.776Z,2.17
2023-02-28T01:39:38.016Z,2.57
2023-02-28T01:42:14.663Z,3.63
2023-02-28T01:48:19.391Z,3.73
2023-02-28T01:50:48.665Z,4.40
2023-02-28T01:53:19.325Z,4.63
2023-02-28T01:55:48.705Z,3.77
2023-02-28T01:58:16.141Z,4.43
2023-02-28T02:00:43.480Z,6.23
2023-02-28T02:03:12.695Z,5.33
2023-02-28T02:05:42.106Z,5.43
2023-02-28T02:08:10.955Z,7.00
2023-02-28T02:10:41.437Z,3.10
2023-02-28T02:13:16.058Z,4.53
2023-02-28T02:15:48.057Z,4.67
2023-02-28T02:18:40.007Z,6.43
2023-02-28T02:21:40.978Z,6.40
2023-02-28T02:24:28.847Z,5.43
2023-02-28T02:27:05.752Z,6.60
2023-02-28T02:29:42.362Z,7.17
2023-02-28T02:32:19.021Z,5.07
2023-02-28T02:34:54.119Z,5.73
2023-02-28T02:37:29.765Z,6.10
2023-02-28T02:40:01.370Z,4.50
2023-02-28T02:42:29.889Z,3.40
2023-02-28T02:45:00.132Z,4.83
2023-02-28T02:51:23.843Z,4.70
2023-02-28T02:53:52.617Z,4.17
2023-02-28T02:56:21.514Z,4.00
2023-02-28T02:58:50.749Z,4.27
2023-02-28T03:01:20.253Z,4.97
2023-02-28T03:03:47.712Z,7.93
2023-02-28T03:06:27.699Z,5.13
2023-02-28T03:08:55.368Z,4.67
2023-02-28T03:11:23.846Z,3.37
2023-02-28T03:13:54.664Z,4.60
2023-02-28T03:17:07.708Z,5.80
2023-02-28T03:19:58.727Z,6.93
2023-02-28T03:22:49.918Z,5.63
2023-02-28T03:25:22.099Z,5.20
2023-02-28T03:27:57.234Z,4.87
2023-02-28T03:30:25.513Z,9.57
2023-02-28T03:32:54.745Z,5.40
2023-02-28T03:35:33.951Z,5.00
2023-02-28T03:38:05.124Z,8.87
2023-02-28T03:40:34.849Z,6.20
2023-02-28T03:43:04.604Z,5.93
2023-02-28T03:45:55.751Z,5.27
2023-02-28T03:52:04.801Z,6.73
2023-02-28T03:54:33.701Z,4.77
2023-02-28T03:57:06.244Z,7.50
2023-02-28T03:59:36.738Z,6.00
2023-02-28T04:02:04.580Z,5.87
2023-02-28T04:04:57.538Z,6.10
2023-02-28T04:07:24.812Z,6.10
2023-02-28T04:09:52.129Z,6.27
2023-02-28T04:12:20.738Z,4.10
2023-02-28T04:21:22.767Z,5.40
2023-02-28T04:23:50.296Z,7.40
2023-02-28T04:26:17.565Z,10.00
2023-02-28T04:28:46.291Z,3.90
2023-02-28T04:31:13.539Z,7.40
2023-02-28T04:33:40.737Z,4.77
2023-02-28T04:36:23.470Z,7.00
2023-02-28T04:38:51.375Z,6.20
2023-02-28T04:41:18.829Z,5.13
2023-02-28T04:43:47.474Z,4.27
2023-02-28T04:50:02.112Z,7.80
2023-02-28T04:52:29.662Z,5.30
2023-02-28T04:54:56.860Z,8.13
2023-02-28T04:57:24.091Z,8.50
2023-02-28T04:59:52.794Z,7.03
2023-02-28T05:02:20.076Z,4.47
2023-02-28T05:05:12.793Z,4.63
2023-02-28T05:07:40.113Z,5.27
2023-02-28T05:10:07.616Z,7.83
2023-02-28T05:12:34.914Z,7.00
2023-02-28T05:18:24.770Z,4.90
2023-02-28T05:20:53.361Z,7.30
2023-02-28T05:23:35.991Z,6.50
2023-02-28T05:26:03.368Z,7.07
2023-02-28T05:28:30.535Z,4.83
2023-02-28T05:30:57.777Z,6.37
2023-02-28T05:36:16.290Z,6.10
2023-02-28T05:38:43.544Z,6.57
2023-02-28T05:41:11.707Z,5.03
2023-02-28T05:50:14.760Z,5.37
2023-02-28T05:52:43.488Z,7.07
2023-02-28T05:55:10.836Z,7.70
2023-02-28T05:57:38.119Z,6.20
2023-02-28T06:00:05.810Z,6.37
2023-02-28T06:02:58.924Z,7.10
2023-02-28T06:05:26.281Z,7.37
2023-02-28T06:07:54.940Z,6.80
2023-02-28T06:10:22.338Z,7.37
2023-02-28T06:12:49.651Z,5.70
2023-02-28T06:18:36.588Z,8.43
2023-02-28T06:21:04.035Z,8.50
2023-02-28T06:23:32.700Z,8.93
2023-02-28T06:25:59.920Z,7.67
2023-02-28T06:28:27.346Z,6.30
2023-02-28T06:30:54.561Z,8.00
2023-02-28T06:33:37.438Z,7.10
2023-02-28T06:36:05.266Z,7.90
2023-02-28T06:38:33.927Z,6.40
2023-02-28T06:41:02.566Z,9.60
2023-02-28T06:50:34.117Z,7.27
2023-02-28T06:53:01.409Z,9.47
2023-02-28T06:55:30.795Z,6.93
2023-02-28T06:57:58.873Z,6.77
2023-02-28T07:00:27.157Z,9.50
2023-02-28T07:02:54.437Z,6.07
2023-02-28T07:05:21.789Z,7.17
2023-02-28T07:07:49.017Z,5.87
2023-02-28T07:10:16.949Z,6.07
2023-02-28T07:12:47.004Z,5.40
2023-02-28T07:15:14.256Z,6.67
2023-02-28T07:17:41.510Z,4.90
2023-02-28T07:20:09.449Z,5.00
2023-02-28T07:22:36.684Z,5.20
2023-02-28T07:25:04.071Z,6.30
2023-02-28T07:27:31.374Z,5.30
2023-02-28T07:30:00.384Z,4.80
2023-02-28T07:32:27.668Z,6.90
2023-02-28T07:34:55.032Z,4.27
2023-02-28T07:37:22.502Z,7.60
2023-02-28T07:39:49.907Z,5.53
2023-02-28T07:42:17.212Z,6.53
2023-02-28T07:44:45.123Z,4.60
2023-02-28T07:47:13.761Z,3.50
2023-02-28T07:49:40.986Z,4.17
2023-02-28T07:52:09.648Z,3.70
2023-02-28T07:54:38.195Z,4.20
2023-02-28T07:57:05.388Z,5.70
2023-02-28T07:59:32.616Z,4.27
2023-02-28T08:01:59.969Z,4.30
2023-02-28T08:04:28.714Z,4.03
2023-02-28T08:06:55.950Z,5.50
2023-02-28T08:09:23.217Z,4.87
2023-02-28T08:11:50.540Z,4.00
2023-02-28T08:14:17.831Z,3.83
2023-02-28T08:16:45.099Z,5.33
2023-02-28T08:19:12.717Z,3.50
2023-02-28T08:21:41.804Z,3.83
2023-02-28T08:24:09.577Z,3.73
2023-02-28T08:26:37.203Z,3.80
2023-02-28T08:29:04.580Z,4.43
2023-02-28T08:31:32.232Z,4.40
2023-02-28T08:37:54.999Z,3.77
2023-02-28T08:40:23.619Z,3.77
2023-02-28T08:42:50.878Z,3.83
2023-02-28T08:45:18.195Z,3.93
2023-02-28T08:47:45.427Z,4.70
2023-02-28T08:50:12.681Z,4.13
2023-02-28T08:52:39.942Z,3.73
2023-02-28T08:55:07.538Z,4.10
2023-02-28T08:57:36.898Z,4.37
2023-02-28T09:00:04.429Z,3.83
2023-02-28T09:02:32.044Z,3.67
2023-02-28T09:04:59.782Z,4.17
2023-02-28T09:10:18.938Z,3.10
2023-02-28T09:12:47.550Z,3.80
2023-02-28T09:15:15.062Z,7.13
2023-02-28T09:17:43.348Z,4.30
2023-02-28T09:20:12.399Z,3.83
2023-02-28T09:22:39.661Z,4.23
2023-02-28T09:29:00.883Z,4.07
2023-02-28T09:31:29.751Z,4.47
2023-02-28T09:33:57.903Z,4.00
2023-02-28T09:36:34.552Z,3.53
2023-02-28T09:39:09.023Z,4.20
2023-02-28T09:41:39.317Z,4.50
2023-02-28T09:44:06.882Z,4.27
2023-02-28T09:46:38.303Z,4.83
2023-02-28T09:49:07.187Z,5.27
2023-02-28T09:51:45.583Z,4.40
2023-02-28T09:57:37.349Z,4.30
2023-02-28T10:00:09.335Z,4.63
2023-02-28T10:02:48.090Z,3.20
2023-02-28T10:05:16.403Z,4.20
2023-02-28T10:07:50.324Z,3.20
2023-02-28T10:10:21.592Z,4.03
2023-02-28T10:12:49.091Z,3.43
2023-02-28T10:15:17.323Z,3.33
2023-02-28T10:20:39.127Z,3.80
2023-02-28T10:27:00.984Z,3.50
2023-02-28T10:29:28.421Z,3.30
2023-02-28T10:31:56.029Z,3.77
2023-02-28T10:34:26.031Z,3.13
2023-02-28T10:36:53.488Z,4.37
2023-02-28T10:39:36.122Z,3.10
2023-02-28T10:42:03.442Z,3.50
2023-02-28T10:44:30.688Z,3.73
2023-02-28T10:46:58.106Z,3.27
2023-02-28T10:49:28.066Z,3.47
2023-02-28T10:51:57.043Z,3.73
2023-02-28T10:54:26.497Z,4.73
2023-02-28T10:57:17.447Z,4.03
2023-02-28T10:59:44.758Z,5.97
2023-02-28T11:02:31.694Z,3.93
2023-02-28T11:05:00.356Z,6.90
2023-02-28T11:07:37.300Z,2.87
2023-02-28T11:10:09.014Z,3.50
2023-02-28T11:12:46.987Z,2.67
2023-02-28T11:15:24.940Z,3.33
2023-02-28T11:17:56.050Z,3.60
2023-02-28T11:20:25.828Z,6.37
2023-02-28T11:22:53.421Z,17.70
2023-02-28T11:25:23.556Z,5.67
2023-02-28T11:27:51.630Z,3.53
2023-02-28T11:30:26.756Z,5.40
2023-02-28T11:32:54.609Z,3.03
2023-02-28T11:35:25.162Z,2.80
2023-02-28T11:37:54.242Z,3.23
2023-02-28T11:40:25.961Z,2.77
2023-02-28T11:42:57.032Z,2.70
2023-02-28T11:45:29.676Z,3.03
2023-02-28T11:48:01.440Z,11.87
2023-02-28T11:50:38.104Z,5.27
2023-02-28T11:53:12.310Z,3.10
2023-02-28T11:55:42.251Z,18.90
2023-02-28T11:58:16.376Z,3.73
2023-02-28T12:00:52.029Z,3.30
2023-02-28T12:03:28.110Z,15.90
2023-02-28T12:05:58.877Z,3.10
2023-02-28T12:08:35.628Z,12.00
2023-02-28T12:11:07.609Z,4.97
2023-02-28T12:13:43.618Z,11.63
2023-02-28T12:16:29.116Z,2.93
2023-02-28T12:19:02.070Z,3.20
2023-02-28T12:21:33.126Z,5.70
2023-02-28T12:24:18.725Z,2.60
2023-02-28T12:26:48.336Z,2.50
2023-02-28T12:29:18.629Z,2.50
2023-02-28T12:31:48.908Z,2.43
2023-02-28T12:34:18.023Z,2.40
2023-02-28T12:36:45.726Z,3.13
2023-02-28T12:39:14.904Z,3.10
2023-02-28T12:41:43.821Z,3.10
2023-02-28T12:44:14.305Z,5.73
2023-02-28T12:46:44.039Z,3.00
2023-02-28T12:49:14.835Z,2.53
2023-02-28T12:51:42.645Z,3.40
2023-02-28T12:54:14.764Z,3.07
2023-02-28T12:56:45.643Z,2.83
2023-02-28T12:59:17.782Z,5.00
2023-02-28T13:01:51.702Z,3.23
2023-02-28T13:04:30.485Z,1.97
2023-02-28T13:07:06.950Z,4.43
2023-02-28T13:09:34.482Z,2.73
2023-02-28T13:12:01.688Z,4.07
2023-02-28T13:14:31.706Z,6.77
2023-02-28T13:17:01.146Z,3.97
2023-02-28T13:19:30.096Z,2.40
2023-02-28T13:21:58.154Z,3.20
2023-02-28T13:24:39.502Z,5.03
2023-02-28T13:27:34.221Z,3.13
2023-02-28T13:30:03.625Z,2.87
2023-02-28T13:32:37.607Z,2.57
2023-02-28T13:35:15.673Z,3.47
2023-02-28T13:37:46.483Z,6.57
2023-02-28T13:40:31.282Z,4.90
2023-02-28T13:43:36.046Z,2.70
2023-02-28T13:49:54.766Z,2.50
2023-02-28T13:52:23.785Z,3.90
2023-02-28T13:55:07.953Z,3.50
2023-02-28T13:57:42.088Z,4.20
2023-02-28T14:00:22.569Z,2.60
2023-02-28T14:03:02.954Z,4.67
2023-02-28T14:05:32.661Z,6.47
2023-02-28T14:08:00.932Z,5.20
2023-02-28T14:10:29.880Z,3.03
2023-02-28T14:12:58.915Z,4.67
2023-02-28T14:15:41.292Z,6.60
2023-02-28T14:18:16.486Z,2.60
2023-02-28T14:20:45.510Z,2.67
2023-02-28T14:23:16.967Z,3.77
2023-02-28T14:25:49.756Z,3.97
2023-02-28T14:28:23.507Z,5.37
2023-02-28T14:34:01.502Z,3.40
2023-02-28T14:36:34.106Z,3.00
2023-02-28T14:39:03.016Z,5.33
2023-02-28T14:41:31.980Z,5.40
2023-02-28T14:44:00.388Z,2.93
2023-02-28T14:46:37.803Z,3.57
2023-02-28T14:49:23.989Z,2.40
2023-02-28T14:52:16.577Z,5.97
2023-02-28T14:54:44.948Z,4.37
2023-02-28T14:57:22.981Z,2.40
2023-02-28T14:59:58.231Z,4.00
2023-02-28T15:02:26.509Z,5.57
2023-02-28T15:04:54.623Z,3.10
2023-02-28T15:07:24.551Z,2.63
2023-02-28T15:10:07.736Z,3.07
2023-02-28T15:12:36.020Z,6.30
2023-02-28T15:15:03.518Z,4.63
2023-02-28T15:17:31.188Z,2.73
2023-02-28T15:19:58.766Z,2.90
2023-02-28T15:22:29.843Z,2.80
2023-02-28T15:24:57.650Z,5.23
2023-02-28T15:27:26.590Z,4.63
2023-02-28T15:29:56.203Z,4.00
2023-02-28T15:32:26.638Z,4.33
2023-02-28T15:34:54.405Z,11.07
2023-02-28T15:37:39.890Z,3.47
2023-02-28T15:40:13.377Z,2.63
2023-02-28T15:42:40.862Z,3.93
2023-02-28T15:45:27.967Z,3.03
2023-02-28T15:47:57.906Z,2.70
2023-02-28T15:50:31.061Z,2.83
2023-02-28T15:53:01.906Z,5.30
2023-02-28T15:55:30.042Z,2.70
2023-02-28T15:57:58.726Z,4.87
2023-02-28T16:00:27.253Z,4.13
2023-02-28T16:02:54.649Z,4.77
2023-02-28T16:05:23.928Z,7.77
2023-02-28T16:07:51.168Z,4.83
2023-02-28T16:10:20.056Z,2.90
2023-02-28T16:12:47.385Z,6.13
2023-02-28T16:15:20.027Z,4.67
2023-02-28T16:17:47.443Z,3.40
2023-02-28T16:20:16.133Z,5.53
2023-02-28T16:22:43.573Z,2.87
2023-02-28T16:25:13.055Z,2.43
2023-02-28T16:27:42.150Z,4.23
2023-02-28T16:30:16.948Z,3.53
2023-02-28T16:32:44.331Z,4.07
2023-02-28T16:35:11.887Z,4.27
2023-02-28T16:37:39.089Z,3.40
2023-02-28T16:40:06.899Z,2.40
2023-02-28T16:42:34.224Z,6.63
2023-02-28T16:45:02.809Z,4.33
2023-02-28T16:47:30.180Z,5.30
2023-02-28T16:49:57.469Z,2.63
2023-02-28T16:52:24.716Z,3.00
2023-02-28T16:54:51.974Z,2.47
2023-02-28T16:57:21.971Z,3.37
2023-02-28T16:59:50.032Z,3.33
2023-02-28T17:02:20.258Z,2.80
2023-02-28T17:04:48.041Z,4.03
2023-02-28T17:07:16.214Z,4.53
2023-02-28T17:09:45.549Z,3.00
2023-02-28T17:12:13.630Z,3.33
2023-02-28T17:14:40.883Z,2.77
2023-02-28T17:17:08.176Z,2.80
2023-02-28T17:19:36.785Z,3.87
2023-02-28T17:22:04.199Z,7.73
2023-02-28T17:24:31.773Z,4.00
2023-02-28T17:26:59.203Z,3.23
2023-02-28T17:29:26.493Z,2.80
2023-02-28T17:31:55.568Z,5.90
2023-02-28T17:34:23.736Z,5.17
2023-02-28T17:36:53.025Z,4.28
2023-02-28T17:39:21.006Z,2.87
2023-02-28T17:41:48.296Z,3.57
2023-02-28T17:44:15.553Z,3.10
2023-02-28T17:46:43.788Z,4.73
2023-02-28T17:49:11.485Z,3.77
2023-02-28T17:51:38.788Z,4.53
2023-02-28T17:54:07.437Z,3.30
2023-02-28T17:56:34.765Z,3.93
2023-02-28T17:59:02.008Z,6.37
2023-02-28T18:01:29.342Z,4.60
2023-02-28T18:03:56.680Z,3.80
2023-02-28T18:06:24.893Z,4.87
2023-02-28T18:08:52.588Z,6.13
2023-02-28T18:11:21.871Z,3.23
2023-02-28T18:13:50.177Z,3.70
2023-02-28T18:16:17.946Z,2.93
2023-02-28T18:18:45.436Z,3.97
2023-02-28T18:21:13.237Z,3.50
2023-02-28T18:23:40.496Z,4.07
2023-02-28T18:26:08.058Z,3.20
2023-02-28T18:28:36.700Z,4.03
2023-02-28T18:31:07.704Z,3.43
2023-02-28T18:33:35.007Z,2.83
2023-02-28T18:38:51.301Z,3.53
2023-02-28T18:41:19.385Z,3.73
2023-02-28T18:43:48.542Z,4.70
2023-02-28T18:46:17.005Z,4.67
2023-02-28T18:48:44.600Z,3.63
2023-02-28T18:51:22.130Z,3.70
2023-02-28T18:54:12.196Z,5.63
2023-02-28T18:56:54.961Z,6.10
2023-02-28T18:59:23.858Z,3.40
2023-02-28T19:01:51.113Z,4.43
2023-02-28T19:04:18.802Z,4.13
2023-02-28T19:06:46.572Z,4.30
2023-02-28T19:09:14.134Z,3.60
2023-02-28T19:14:15.336Z,3.87
2023-02-28T19:16:44.426Z,3.70
2023-02-28T19:19:11.804Z,4.50
2023-02-28T19:21:39.100Z,4.20
2023-02-28T19:24:06.740Z,5.50
2023-02-28T19:26:39.776Z,3.50
2023-02-28T19:29:31.900Z,5.23
2023-02-28T19:32:12.956Z,5.20
2023-02-28T19:34:40.316Z,6.17
2023-02-28T19:37:07.624Z,5.87
2023-02-28T19:39:34.967Z,4.93
2023-02-28T19:42:08.734Z,4.90
2023-02-28T19:44:35.986Z,4.73
2023-02-28T19:47:03.683Z,4.33
2023-02-28T19:49:32.284Z,5.70
2023-02-28T19:51:59.832Z,5.10
2023-02-28T19:54:27.775Z,9.93
2023-02-28T19:56:55.259Z,8.37
2023-02-28T19:59:35.730Z,9.17
2023-02-28T20:02:06.129Z,13.70
2023-02-28T20:04:34.753Z,10.37
2023-02-28T20:07:02.394Z,35.70
2023-02-28T20:09:31.140Z,22.70
2023-02-28T20:11:59.025Z,9.83
2023-02-28T20:14:26.322Z,10.10
2023-02-28T20:16:55.434Z,9.80
2023-02-28T20:19:23.734Z,8.60
2023-02-28T20:21:52.409Z,7.83
2023-02-28T20:24:19.761Z,10.80
2023-02-28T20:26:47.237Z,15.77
2023-02-28T20:29:14.482Z,19.17
2023-02-28T20:31:41.745Z,28.63
2023-02-28T20:34:09.305Z,16.13
2023-02-28T20:36:36.587Z,11.97
2023-02-28T20:39:05.576Z,7.83
2023-02-28T20:41:32.760Z,8.67
2023-02-28T20:44:00.371Z,19.60
2023-02-28T20:46:27.982Z,19.17
2023-02-28T20:48:55.604Z,17.20
2023-02-28T20:51:22.969Z,23.53
2023-02-28T20:53:50.399Z,13.93
2023-02-28T20:56:20.305Z,7.27
2023-02-28T20:58:49.078Z,16.90
2023-02-28T21:01:18.019Z,35.47
2023-02-28T21:03:46.550Z,16.37
2023-02-28T21:06:14.822Z,19.87
2023-02-28T21:08:42.503Z,20.87
2023-02-28T21:11:10.646Z,25.23
2023-02-28T21:13:39.307Z,17.57
2023-02-28T21:16:07.469Z,10.10
2023-02-28T21:18:35.072Z,11.20
2023-02-28T21:21:02.834Z,11.53
2023-02-28T21:23:31.265Z,8.83
2023-02-28T21:26:02.075Z,6.90
2023-02-28T21:28:29.334Z,8.70
2023-02-28T21:31:02.546Z,8.17
2023-02-28T21:33:29.817Z,9.07
2023-02-28T21:36:07.027Z,7.67
2023-02-28T21:38:34.879Z,6.83
2023-02-28T21:41:05.810Z,7.50
2023-02-28T21:43:33.089Z,6.40
2023-02-28T21:46:02.792Z,6.50
2023-02-28T21:48:30.118Z,5.57
2023-02-28T21:50:57.753Z,8.50
2023-02-28T21:53:25.337Z,6.47
2023-02-28T21:55:52.618Z,8.90
2023-02-28T21:58:20.117Z,7.27
2023-02-28T22:00:47.388Z,6.83
2023-02-28T22:03:16.071Z,10.00
2023-02-28T22:05:43.531Z,12.30
2023-02-28T22:08:10.830Z,10.63
2023-02-28T22:10:38.246Z,10.63
2023-02-28T22:13:05.897Z,8.83
2023-02-28T22:15:36.545Z,6.23
2023-02-28T22:18:04.023Z,7.33
2023-02-28T22:20:32.578Z,6.50
2023-02-28T22:22:59.960Z,6.87
2023-02-28T22:25:27.563Z,9.70
2023-02-28T22:27:54.821Z,9.30
2023-02-28T22:30:22.359Z,9.80
2023-02-28T22:32:49.577Z,7.20
2023-02-28T22:35:16.967Z,7.53
2023-02-28T22:37:45.553Z,6.47
2023-02-28T22:40:13.233Z,7.13
2023-02-28T22:42:40.506Z,9.07
2023-02-28T22:45:08.294Z,6.47
2023-02-28T22:47:35.558Z,6.93
2023-02-28T22:50:02.943Z,7.17
2023-02-28T22:52:30.226Z,8.37
2023-02-28T22:54:58.807Z,8.60
2023-02-28T22:57:26.040Z,9.83
2023-02-28T22:59:53.275Z,6.40
2023-02-28T23:02:20.522Z,7.40
2023-02-28T23:04:47.728Z,6.77
2023-02-28T23:07:15.114Z,6.67
2023-02-28T23:09:42.347Z,7.17
2023-02-28T23:12:10.922Z,7.33
2023-02-28T23:14:38.143Z,7.63
2023-02-28T23:17:05.344Z,8.63
2023-02-28T23:19:32.906Z,9.37
2023-02-28T23:22:12.233Z,8.10
2023-02-28T23:25:07.536Z,7.53
2023-02-28T23:27:36.248Z,6.30
2023-02-28T23:30:03.928Z,8.23
2023-02-28T23:32:31.327Z,7.77
2023-02-28T23:34:58.597Z,8.30
2023-02-28T23:37:26.124Z,6.83
2023-02-28T23:39:53.324Z,7.03
2023-02-28T23:42:25.891Z,7.43
2023-02-28T23:44:54.480Z,8.93
2023-02-28T23:47:22.599Z,7.73
2023-02-28T23:49:49.831Z,6.97
2023-02-28T23:52:24.025Z,7.93
2023-02-28T23:55:03.889Z,7.77
2023-02-28T23:57:31.154Z,7.33
2023-02-28T23:59:59.821Z,7.43
